Time;durP1;ratioP1;P1;durP2;ratioP2;P2;SDS_P1;SDS_P2;PMS_P1;PMS_P2;Temp;Humidity;BMP_temperature;BMP_pressure;BME280_temperature;BME280_humidity;BME280_pressure;Samples;Min_cycle;Max_cycle;Signal;HPM_P1;HPM_P2
2022/07/29 00:00:52;;;;;;;3.43;3.13;;;17.50;1.00;;;;;;5118959;28;20442;-79
2022/07/29 00:03:19;;;;;;;4.87;3.13;;;17.50;1.00;;;;;;5118555;28;20934;-79
2022/07/29 00:05:45;;;;;;;5.60;3.47;;;17.50;1.00;;;;;;5119686;28;20442;-80
2022/07/29 00:08:12;;;;;;;4.13;3.73;;;17.50;1.00;;;;;;5118851;28;20992;-79
2022/07/29 00:10:39;;;;;;;8.10;3.10;;;17.50;1.00;;;;;;5119000;28;20925;-79
2022/07/29 00:13:06;;;;;;;3.57;3.27;;;17.50;1.00;;;;;;5119180;28;20474;-80
2022/07/29 00:15:33;;;;;;;5.80;3.00;;;17.60;1.00;;;;;;5119896;28;20478;-80
2022/07/29 00:18:01;;;;;;;4.80;3.80;;;17.40;1.00;;;;;;5119312;28;20490;-79
2022/07/29 00:20:28;;;;;;;7.40;3.43;;;17.30;1.00;;;;;;5120691;28;20482;-80
2022/07/29 00:22:54;;;;;;;3.60;3.27;;;17.30;1.00;;;;;;5120086;28;20937;-78
2022/07/29 00:25:21;;;;;;;6.53;4.33;;;17.30;1.00;;;;;;5122909;28;20439;-79
2022/07/29 00:27:48;;;;;;;3.90;3.50;;;17.20;1.00;;;;;;5121720;28;20829;-78
2022/07/29 00:30:15;;;;;;;5.43;3.67;;;17.30;1.00;;;;;;5120877;28;20558;-78
2022/07/29 00:32:42;;;;;;;9.03;3.93;;;17.20;1.00;;;;;;5122677;28;20479;-77
2022/07/29 00:37:57;;;;;;;4.10;3.70;;;17.20;1.00;;;;;;5125959;28;20445;-77
2022/07/29 00:40:24;;;;;;;4.53;3.40;;;17.20;1.00;;;;;;5123217;28;20439;-78
2022/07/29 00:42:52;;;;;;;15.73;4.90;;;17.10;15.10;;;;;;5121424;28;20496;-79
2022/07/29 00:45:21;;;;;;;10.73;4.60;;;17.10;20.90;;;;;;5118916;28;20797;-79
2022/07/29 00:47:48;;;;;;;5.47;4.20;;;17.10;37.80;;;;;;5120475;28;20876;-78
2022/07/29 00:50:16;;;;;;;4.63;4.23;;;17.00;59.70;;;;;;5128284;28;20435;-79
2022/07/29 00:52:43;;;;;;;6.50;4.00;;;17.10;90.70;;;;;;5124146;28;20527;-79
2022/07/29 00:55:13;;;;;;;4.27;3.87;;;17.10;99.90;;;;;;5118634;28;20443;-78
2022/07/29 00:57:40;;;;;;;12.10;3.57;;;17.00;99.90;;;;;;5118079;28;20482;-79
2022/07/29 01:00:10;;;;;;;6.87;3.90;;;17.00;99.90;;;;;;5118459;28;20946;-79
2022/07/29 01:02:36;;;;;;;7.97;4.40;;;17.00;99.90;;;;;;5118482;28;20443;-80
2022/07/29 01:05:04;;;;;;;7.40;4.17;;;16.90;99.90;;;;;;5118266;28;20458;-78
2022/07/29 01:07:34;;;;;;;6.57;4.63;;;16.90;99.90;;;;;;5120100;28;20534;-77
2022/07/29 01:10:01;;;;;;;4.57;4.13;;;16.80;99.90;;;;;;5122014;28;20451;-78
2022/07/29 01:12:31;;;;;;;5.93;3.67;;;16.80;99.90;;;;;;5121608;28;20481;-78
2022/07/29 01:15:00;;;;;;;6.10;4.90;;;16.80;99.90;;;;;;5118447;28;20447;-79
2022/07/29 01:17:29;;;;;;;5.53;4.27;;;16.80;99.90;;;;;;5118104;28;20470;-79
2022/07/29 01:20:01;;;;;;;6.33;4.20;;;16.80;99.90;;;;;;5119056;28;20466;-79
2022/07/29 01:23:13;;;;;;;4.27;3.87;;;16.70;99.90;;;;;;5118212;28;20442;-79
2022/07/29 01:25:51;;;;;;;5.83;4.10;;;16.70;99.90;;;;;;5092015;28;20459;-79
2022/07/29 01:28:50;;;;;;;4.73;4.33;;;16.70;99.90;;;;;;5117450;28;20471;-80
2022/07/29 01:31:21;;;;;;;4.60;4.00;;;16.80;99.90;;;;;;5118635;28;20434;-79
2022/07/29 01:33:55;;;;;;;5.00;3.93;;;16.70;99.90;;;;;;5119039;28;21000;-79
2022/07/29 01:36:28;;;;;;;4.13;3.43;;;16.70;1.00;;;;;;5120291;28;20801;-79
2022/07/29 01:38:59;;;;;;;4.67;4.27;;;16.60;1.00;;;;;;5118953;28;20440;-79
2022/07/29 01:41:31;;;;;;;3.93;3.53;;;16.60;1.00;;;;;;5118116;28;20767;-79
2022/07/29 01:44:03;;;;;;;6.10;4.27;;;16.50;1.00;;;;;;5119177;28;20432;-78
2022/07/29 01:46:34;;;;;;;7.40;3.53;;;16.60;1.00;;;;;;5117699;28;20424;-79
2022/07/29 01:49:09;;;;;;;4.63;4.23;;;16.60;1.00;;;;;;5117572;28;20431;-78
2022/07/29 01:51:44;;;;;;;4.33;3.93;;;16.60;1.00;;;;;;5117684;28;20419;-79
2022/07/29 01:54:17;;;;;;;6.17;4.00;;;16.70;1.00;;;;;;5118900;28;20454;-79
2022/07/29 01:56:46;;;;;;;20.77;4.97;;;16.40;1.00;;;;;;5117602;28;20427;-79
2022/07/29 01:59:14;;;;;;;8.33;3.80;;;16.60;1.00;;;;;;5117157;28;20434;-79
2022/07/29 02:01:43;;;;;;;5.03;4.00;;;16.60;1.00;;;;;;5117686;28;21008;-79
2022/07/29 02:04:13;;;;;;;5.83;4.20;;;16.60;1.00;;;;;;5117192;28;20990;-79
2022/07/29 02:06:43;;;;;;;3.83;3.50;;;16.60;1.00;;;;;;5116915;28;20447;-79
2022/07/29 02:09:13;;;;;;;5.63;3.60;;;16.50;1.00;;;;;;5117428;28;20501;-78
2022/07/29 02:11:41;;;;;;;6.03;3.70;;;16.50;1.00;;;;;;5116941;28;20843;-77
2022/07/29 02:14:10;;;;;;;7.30;3.90;;;16.40;1.00;;;;;;5117066;28;20819;-79
2022/07/29 02:16:40;;;;;;;4.10;3.70;;;16.50;4.20;;;;;;5116823;28;20443;-79
2022/07/29 02:19:09;;;;;;;6.83;4.90;;;16.40;1.00;;;;;;5117031;28;20427;-77
2022/07/29 02:21:36;;;;;;;4.07;3.77;;;16.40;1.00;;;;;;5117733;28;20439;-78
2022/07/29 02:24:04;;;;;;;4.33;3.93;;;16.40;1.40;;;;;;5117142;28;20808;-81
2022/07/29 02:26:34;;;;;;;4.87;4.27;;;16.30;1.00;;;;;;5116134;28;20859;-80
2022/07/29 02:29:01;;;;;;;4.33;3.93;;;16.40;1.00;;;;;;5116251;28;20517;-80
2022/07/29 02:31:33;;;;;;;4.90;3.90;;;16.40;1.00;;;;;;5116264;28;20885;-80
2022/07/29 02:34:04;;;;;;;6.40;4.20;;;16.40;1.00;;;;;;5116425;28;20467;-79
2022/07/29 02:36:32;;;;;;;7.77;4.20;;;16.30;74.40;;;;;;5116814;28;20427;-79
2022/07/29 02:39:01;;;;;;;3.73;3.43;;;16.30;99.90;;;;;;5116807;28;20458;-79
2022/07/29 02:41:31;;;;;;;4.60;3.60;;;16.30;99.90;;;;;;5117350;28;20617;-80
2022/07/29 02:44:03;;;;;;;4.23;3.70;;;16.30;24.80;;;;;;5116554;28;20443;-79
2022/07/29 02:46:33;;;;;;;6.50;4.03;;;16.30;99.90;;;;;;5116442;28;20428;-80
2022/07/29 02:49:09;;;;;;;7.93;3.90;;;16.30;99.90;;;;;;5115656;28;20929;-79
2022/07/29 02:51:43;;;;;;;4.57;3.23;;;16.30;99.90;;;;;;5116685;28;21013;-79
2022/07/29 02:54:15;;;;;;;5.90;4.00;;;16.30;99.90;;;;;;5116010;28;20474;-78
2022/07/29 02:56:43;;;;;;;7.70;4.83;;;16.10;99.90;;;;;;5116052;28;20430;-81
2022/07/29 02:59:12;;;;;;;5.63;4.00;;;16.30;99.90;;;;;;5116846;28;20431;-78
2022/07/29 03:01:44;;;;;;;6.20;3.80;;;16.20;99.90;;;;;;5116930;28;20450;-79
2022/07/29 03:04:15;;;;;;;5.90;4.13;;;16.20;99.90;;;;;;5116433;28;20423;-78
2022/07/29 03:06:43;;;;;;;6.20;3.60;;;15.80;99.90;;;;;;5117040;28;20431;-78
2022/07/29 03:09:11;;;;;;;6.23;4.03;;;16.20;99.90;;;;;;5121483;28;20431;-80
2022/07/29 03:11:39;;;;;;;4.80;4.30;;;16.20;99.90;;;;;;5126220;28;20435;-78
2022/07/29 03:14:07;;;;;;;6.40;4.30;;;16.20;99.90;;;;;;5129810;28;20481;-78
2022/07/29 03:16:36;;;;;;;5.20;3.63;;;16.30;99.90;;;;;;5122423;28;20956;-79
2022/07/29 03:19:04;;;;;;;4.07;3.20;;;16.20;99.90;;;;;;5121248;28;20533;-79
2022/07/29 03:21:32;;;;;;;10.93;4.50;;;16.20;99.90;;;;;;5120461;28;20472;-78
2022/07/29 03:23:59;;;;;;;4.57;3.40;;;16.20;99.90;;;;;;5126510;28;20434;-77
2022/07/29 03:26:26;;;;;;;7.00;3.90;;;16.30;99.90;;;;;;5125523;28;20529;-78
2022/07/29 03:28:53;;;;;;;4.27;3.80;;;16.20;99.90;;;;;;5124487;28;20454;-79
2022/07/29 03:31:20;;;;;;;5.93;3.43;;;16.20;99.90;;;;;;5120847;28;20498;-79
2022/07/29 03:33:46;;;;;;;4.50;4.10;;;16.20;99.90;;;;;;5120843;28;20474;-80
2022/07/29 03:36:13;;;;;;;5.67;3.83;;;16.20;99.90;;;;;;5119859;28;20817;-79
2022/07/29 03:38:44;;;;;;;6.80;4.00;;;16.20;99.90;;;;;;5120259;28;20819;-80
2022/07/29 03:41:13;;;;;;;5.50;3.70;;;16.20;99.90;;;;;;5120870;28;20409;-79
2022/07/29 03:43:42;;;;;;;4.63;3.93;;;16.20;99.90;;;;;;5124006;28;20446;-78
2022/07/29 03:46:10;;;;;;;5.80;4.87;;;16.20;99.90;;;;;;5127499;28;20946;-78
2022/07/29 03:48:42;;;;;;;8.43;4.50;;;16.20;99.90;;;;;;5127107;28;21007;-78
2022/07/29 03:51:09;;;;;;;4.20;3.60;;;16.20;99.90;;;;;;5126406;28;20435;-79
2022/07/29 03:53:37;;;;;;;5.80;3.80;;;16.20;99.90;;;;;;5123993;28;21012;-80
2022/07/29 03:56:07;;;;;;;7.00;3.70;;;16.10;99.90;;;;;;5120646;28;20451;-80
2022/07/29 03:58:35;;;;;;;7.50;4.47;;;16.10;99.90;;;;;;5119876;28;20478;-80
2022/07/29 04:01:02;;;;;;;5.10;4.13;;;16.10;99.90;;;;;;5120233;28;20438;-80
2022/07/29 04:03:29;;;;;;;4.27;3.90;;;16.10;99.90;;;;;;5125217;28;20435;-78
2022/07/29 04:06:01;;;;;;;5.97;3.57;;;16.10;99.90;;;;;;5126854;28;20937;-78
2022/07/29 04:08:27;;;;;;;5.30;3.50;;;16.10;99.90;;;;;;5121462;28;20474;-78
2022/07/29 04:10:54;;;;;;;4.50;3.83;;;16.10;99.90;;;;;;5121875;28;20538;-80
2022/07/29 04:13:22;;;;;;;6.07;4.17;;;16.10;99.90;;;;;;5120441;28;20824;-79
2022/07/29 04:15:49;;;;;;;4.40;4.10;;;16.10;99.90;;;;;;5120445;28;20466;-78
2022/07/29 04:18:16;;;;;;;5.97;4.10;;;16.10;99.90;;;;;;5119812;28;20467;-77
2022/07/29 04:20:43;;;;;;;11.40;5.63;;;16.10;99.90;;;;;;5118934;28;20451;-79
2022/07/29 04:23:09;;;;;;;6.07;3.90;;;16.10;99.90;;;;;;5119331;28;20438;-78
2022/07/29 04:25:39;;;;;;;9.20;4.20;;;16.10;99.90;;;;;;5120825;28;20451;-77
2022/07/29 04:28:06;;;;;;;5.03;4.00;;;16.10;99.90;;;;;;5125406;28;20467;-77
2022/07/29 04:30:35;;;;;;;10.33;4.33;;;16.10;99.90;;;;;;5120564;28;20454;-78
2022/07/29 04:33:04;;;;;;;5.23;3.60;;;16.10;99.90;;;;;;5120792;28;20443;-79
2022/07/29 04:35:31;;;;;;;5.00;4.30;;;16.10;1.00;;;;;;5119266;28;20822;-79
2022/07/29 04:37:58;;;;;;;4.53;4.03;;;16.00;1.00;;;;;;5118917;28;20471;-79
2022/07/29 04:40:25;;;;;;;4.17;3.77;;;16.10;1.00;;;;;;5121517;28;20447;-77
2022/07/29 04:42:51;;;;;;;4.43;3.60;;;16.10;99.90;;;;;;5123485;28;20435;-77
2022/07/29 04:45:18;;;;;;;5.17;4.60;;;16.10;99.90;;;;;;5123644;28;20431;-78
2022/07/29 04:47:47;;;;;;;5.60;3.87;;;16.10;99.90;;;;;;5120764;28;20466;-79
2022/07/29 04:50:13;;;;;;;5.03;3.87;;;16.10;1.00;;;;;;5119973;28;20496;-79
2022/07/29 04:52:40;;;;;;;5.87;4.50;;;16.10;1.00;;;;;;5120080;28;20431;-78
2022/07/29 04:55:08;;;;;;;4.20;3.73;;;16.10;99.90;;;;;;5119669;28;20481;-80
2022/07/29 04:57:34;;;;;;;12.83;3.90;;;16.10;99.90;;;;;;5136712;22;20495;-77
2022/07/29 05:00:01;;;;;;;5.03;3.80;;;16.20;99.90;;;;;;5094758;28;20869;-77
2022/07/29 05:02:28;;;;;;;4.70;4.30;;;16.20;99.90;;;;;;5094429;28;20950;-76
2022/07/29 05:04:56;;;;;;;8.53;4.90;;;16.20;99.90;;;;;;5094630;28;20439;-76
2022/07/29 05:07:23;;;;;;;7.23;4.80;;;16.20;99.90;;;;;;5094434;28;20464;-77
2022/07/29 05:09:50;;;;;;;5.13;4.60;;;16.30;99.90;;;;;;5094644;28;20883;-77
2022/07/29 05:12:16;;;;;;;4.53;3.70;;;16.20;99.90;;;;;;5094717;28;20806;-77
2022/07/29 05:14:43;;;;;;;7.93;4.20;;;16.30;99.90;;;;;;5094292;28;20479;-76
2022/07/29 05:17:10;;;;;;;5.47;4.63;;;16.20;99.90;;;;;;5094297;28;20448;-76
2022/07/29 05:19:36;;;;;;;5.40;4.20;;;16.30;99.90;;;;;;5094240;28;20970;-77
2022/07/29 05:22:05;;;;;;;10.37;4.33;;;16.40;99.90;;;;;;5094470;28;20444;-77
2022/07/29 05:24:32;;;;;;;4.93;3.93;;;16.40;99.90;;;;;;5094528;28;20467;-77
2022/07/29 05:26:58;;;;;;;7.77;4.67;;;16.40;99.90;;;;;;5094303;28;20451;-77
2022/07/29 05:29:25;;;;;;;4.70;4.10;;;16.50;99.90;;;;;;5094495;28;20818;-77
2022/07/29 05:31:52;;;;;;;4.67;4.00;;;16.50;99.90;;;;;;5094608;28;20863;-78
2022/07/29 05:34:20;;;;;;;5.73;4.00;;;16.50;99.90;;;;;;5093677;28;20479;-77
2022/07/29 05:36:46;;;;;;;6.50;4.17;;;16.60;99.90;;;;;;5094154;28;20991;-77
2022/07/29 05:39:14;;;;;;;7.33;3.53;;;16.50;99.90;;;;;;5093779;28;20990;-78
2022/07/29 05:41:41;;;;;;;6.40;4.10;;;16.60;99.90;;;;;;5094507;28;20882;-76
2022/07/29 05:44:08;;;;;;;5.50;4.67;;;16.60;31.70;;;;;;5093831;28;20451;-76
2022/07/29 05:46:35;;;;;;;4.50;3.83;;;16.60;63.60;;;;;;5094164;28;20455;-76
2022/07/29 05:49:02;;;;;;;14.37;4.50;;;16.60;40.50;;;;;;5094161;28;20836;-77
2022/07/29 05:51:29;;;;;;;4.33;3.90;;;16.60;22.20;;;;;;5093739;28;20546;-77
2022/07/29 05:53:56;;;;;;;5.63;4.03;;;16.60;1.00;;;;;;5093897;28;20541;-76
2022/07/29 05:56:24;;;;;;;7.33;3.87;;;16.70;1.00;;;;;;5093767;28;20459;-77
2022/07/29 05:58:51;;;;;;;6.10;3.60;;;16.70;1.00;;;;;;5093583;28;20475;-77
2022/07/29 06:01:18;;;;;;;9.50;4.40;;;16.80;1.00;;;;;;5093903;28;20448;-77
2022/07/29 06:03:45;;;;;;;12.17;4.10;;;16.80;1.00;;;;;;5094725;28;20455;-77
2022/07/29 06:06:11;;;;;;;5.97;4.00;;;17.00;1.00;;;;;;5094601;28;20850;-77
2022/07/29 06:08:40;;;;;;;7.30;5.07;;;17.20;1.00;;;;;;5093989;28;20841;-77
2022/07/29 06:11:08;;;;;;;8.07;5.00;;;17.20;1.00;;;;;;5093608;28;20444;-78
2022/07/29 06:13:36;;;;;;;6.93;4.03;;;17.30;99.90;;;;;;5093949;28;20448;-77
2022/07/29 06:16:03;;;;;;;11.00;4.77;;;17.30;99.90;;;;;;5093648;28;20475;-78
2022/07/29 06:18:30;;;;;;;5.87;4.00;;;17.30;99.90;;;;;;5093452;28;20460;-76
2022/07/29 06:20:57;;;;;;;6.03;3.67;;;17.40;99.90;;;;;;5093672;28;20451;-77
2022/07/29 06:23:24;;;;;;;4.80;3.83;;;17.50;99.90;;;;;;5093594;28;20809;-76
2022/07/29 06:25:50;;;;;;;9.63;4.07;;;17.60;99.90;;;;;;5093639;28;20444;-76
2022/07/29 06:28:17;;;;;;;7.07;4.20;;;17.70;99.90;;;;;;5093236;28;20463;-76
2022/07/29 06:30:45;;;;;;;5.77;5.30;;;17.80;99.90;;;;;;5093035;28;20450;-77
2022/07/29 06:33:17;;;;;;;10.53;4.67;;;17.70;99.90;;;;;;5093429;28;20444;-77
2022/07/29 06:35:45;;;;;;;4.30;3.90;;;17.70;99.90;;;;;;5093489;28;20990;-76
2022/07/29 06:38:12;;;;;;;15.20;8.50;;;17.80;99.90;;;;;;5093187;28;20476;-76
2022/07/29 06:43:26;;;;;;;8.50;3.40;;;17.90;99.90;;;;;;5093204;28;20905;-76
2022/07/29 06:45:54;;;;;;;6.03;3.93;;;18.00;99.90;;;;;;5095639;28;20450;-78
2022/07/29 06:48:21;;;;;;;10.13;4.20;;;18.10;99.90;;;;;;5097441;28;20463;-76
2022/07/29 06:50:47;;;;;;;4.33;3.90;;;18.20;99.90;;;;;;5097270;28;20864;-76
2022/07/29 06:53:14;;;;;;;7.83;3.83;;;18.20;58.70;;;;;;5097172;28;20448;-75
2022/07/29 06:55:42;;;;;;;4.30;3.90;;;18.20;47.30;;;;;;5097830;28;20562;-76
2022/07/29 06:58:08;;;;;;;6.90;5.40;;;18.20;68.00;;;;;;5097838;28;20487;-76
2022/07/29 07:00:35;;;;;;;9.23;4.03;;;18.30;56.60;;;;;;5097239;28;20451;-77
2022/07/29 07:03:04;;;;;;;4.33;3.57;;;18.30;39.70;;;;;;5096515;28;20448;-76
2022/07/29 07:05:30;;;;;;;6.30;4.10;;;18.40;17.30;;;;;;5097096;28;20439;-76
2022/07/29 07:07:57;;;;;;;3.97;3.53;;;18.40;16.90;;;;;;5096667;28;20468;-77
2022/07/29 07:10:24;;;;;;;5.73;4.13;;;18.40;97.00;;;;;;5096641;28;20439;-76
2022/07/29 07:12:50;;;;;;;4.67;3.97;;;18.50;10.70;;;;;;5096232;28;20443;-77
2022/07/29 07:15:21;;;;;;;3.87;3.50;;;18.60;99.90;;;;;;5096505;28;20484;-76
2022/07/29 07:17:48;;;;;;;4.20;3.13;;;18.80;36.50;;;;;;5096504;28;20499;-76
2022/07/29 07:20:16;;;;;;;6.80;3.80;;;19.00;99.90;;;;;;5096425;28;20819;-78
2022/07/29 07:22:43;;;;;;;7.47;5.07;;;19.00;53.80;;;;;;5096366;28;20454;-77
2022/07/29 07:25:10;;;;;;;5.43;4.10;;;19.00;1.00;;;;;;5096544;28;20454;-77
2022/07/29 07:27:37;;;;;;;6.63;3.70;;;18.90;1.00;;;;;;5095988;28;21017;-77
2022/07/29 07:30:06;;;;;;;8.27;3.83;;;18.90;1.00;;;;;;5097244;28;20444;-77
2022/07/29 07:32:33;;;;;;;4.50;3.20;;;18.90;1.00;;;;;;5095562;28;20443;-77
2022/07/29 07:35:00;;;;;;;5.47;3.40;;;19.00;1.00;;;;;;5095651;28;20486;-77
2022/07/29 07:37:28;;;;;;;5.77;3.20;;;19.00;1.00;;;;;;5095947;28;20470;-77
2022/07/29 07:39:55;;;;;;;11.77;9.77;;;19.10;1.00;;;;;;5096017;28;20451;-77
2022/07/29 07:42:21;;;;;;;7.80;3.30;;;19.30;1.00;;;;;;5096270;28;20818;-77
2022/07/29 07:44:49;;;;;;;10.13;6.93;;;19.60;19.60;;;;;;5096602;28;20444;-76
2022/07/29 07:47:19;;;;;;;8.73;4.43;;;20.10;1.00;;;;;;5096480;28;20487;-76
2022/07/29 07:49:46;;;;;;;7.70;4.10;;;19.90;1.00;;;;;;5096242;28;20753;-77
2022/07/29 07:52:13;;;;;;;5.70;3.20;;;20.10;13.20;;;;;;5096056;28;20451;-76
2022/07/29 07:54:41;;;;;;;3.70;2.53;;;20.30;1.00;;;;;;5095581;28;20479;-76
2022/07/29 07:57:07;;;;;;;6.20;3.13;;;20.40;50.90;;;;;;5094845;28;20459;-76
2022/07/29 07:59:34;;;;;;;5.47;3.00;;;20.50;11.00;;;;;;5096235;28;20424;-76
2022/07/29 08:02:01;;;;;;;4.07;3.17;;;20.50;1.00;;;;;;5096133;28;20451;-76
2022/07/29 08:04:28;;;;;;;4.30;2.70;;;20.60;1.00;;;;;;5095711;28;20878;-76
2022/07/29 08:06:55;;;;;;;4.30;3.13;;;20.70;1.00;;;;;;5095541;28;20451;-76
2022/07/29 08:09:23;;;;;;;4.83;3.57;;;20.90;1.00;;;;;;5095000;28;20471;-76
2022/07/29 08:11:51;;;;;;;3.47;3.17;;;20.90;1.00;;;;;;5095515;28;20444;-77
2022/07/29 08:14:18;;;;;;;3.30;3.00;;;20.90;1.00;;;;;;5095045;28;20853;-77
2022/07/29 08:16:45;;;;;;;4.13;3.73;;;21.00;1.00;;;;;;5095230;28;20476;-76
2022/07/29 08:19:12;;;;;;;5.93;5.30;;;21.10;1.00;;;;;;5095203;28;20468;-76
2022/07/29 08:21:39;;;;;;;8.50;4.90;;;21.10;1.00;;;;;;5094841;28;20455;-76
2022/07/29 08:26:52;;;;;;;3.63;2.97;;;21.40;1.00;;;;;;5095048;28;20411;-76
2022/07/29 08:29:19;;;;;;;5.90;3.30;;;21.50;1.00;;;;;;5096081;28;20497;-76
2022/07/29 08:31:46;;;;;;;6.63;3.67;;;21.60;1.00;;;;;;5095240;28;20443;-76
2022/07/29 08:34:13;;;;;;;5.87;4.57;;;21.70;1.00;;;;;;5095340;28;20443;-76
2022/07/29 08:36:39;;;;;;;5.23;4.60;;;21.80;1.00;;;;;;5095490;28;20487;-77
2022/07/29 08:39:06;;;;;;;3.43;3.13;;;21.80;1.00;;;;;;5095358;28;20464;-76
2022/07/29 08:41:42;;;;;;;8.60;4.20;;;21.90;1.00;;;;;;5095085;28;21045;-76
2022/07/29 08:44:11;;;;;;;6.23;4.63;;;21.80;1.00;;;;;;5091599;28;20952;-76
2022/07/29 08:46:39;;;;;;;6.13;3.90;;;21.90;1.00;;;;;;5094940;28;20440;-77
2022/07/29 08:49:06;;;;;;;4.90;3.43;;;22.00;1.00;;;;;;5094941;28;20831;-76
2022/07/29 08:51:36;;;;;;;3.13;2.80;;;22.00;1.00;;;;;;5095016;28;20493;-76
2022/07/29 08:54:04;;;;;;;3.37;2.60;;;22.00;1.00;;;;;;5094664;28;20964;-76
2022/07/29 08:56:31;;;;;;;5.30;2.40;;;22.10;1.00;;;;;;5094669;28;20490;-76
2022/07/29 08:58:59;;;;;;;3.13;2.87;;;22.10;1.00;;;;;;5094804;28;20479;-76
2022/07/29 09:01:30;;;;;;;3.17;2.87;;;22.10;1.00;;;;;;5094591;28;20851;-76
2022/07/29 09:03:58;;;;;;;7.53;3.43;;;22.10;1.00;;;;;;5094863;28;20459;-76
2022/07/29 09:06:27;;;;;;;9.17;3.37;;;22.20;1.00;;;;;;5094799;28;20439;-76
2022/07/29 09:08:58;;;;;;;3.00;2.70;;;22.20;1.00;;;;;;5093521;28;20508;-76
2022/07/29 09:11:25;;;;;;;3.20;2.43;;;22.30;1.00;;;;;;5094731;28;20451;-76
2022/07/29 09:13:52;;;;;;;3.47;3.00;;;22.30;1.00;;;;;;5094772;28;20447;-77
2022/07/29 09:16:19;;;;;;;10.37;4.30;;;22.50;1.00;;;;;;5094179;28;20529;-76
2022/07/29 09:18:47;;;;;;;8.20;4.50;;;22.60;1.00;;;;;;5094344;28;20464;-76
2022/07/29 09:24:06;;;;;;;6.23;3.67;;;22.80;1.00;;;;;;5094368;28;20767;-76
2022/07/29 09:26:34;;;;;;;4.10;3.70;;;22.90;1.00;;;;;;5094266;28;20424;-77
2022/07/29 09:29:09;;;;;;;6.10;3.67;;;23.00;1.00;;;;;;5094079;28;20474;-76
2022/07/29 09:31:38;;;;;;;5.90;4.87;;;23.10;1.00;;;;;;5094265;28;20489;-76
2022/07/29 09:34:07;;;;;;;4.13;2.70;;;23.10;1.00;;;;;;5094061;28;20444;-76
2022/07/29 09:36:40;;;;;;;3.00;2.80;;;23.20;1.00;;;;;;5095151;28;20471;-77
2022/07/29 09:39:07;;;;;;;4.77;2.37;;;23.20;1.00;;;;;;5094507;28;20527;-76
2022/07/29 09:41:46;;;;;;;3.80;2.23;;;23.20;1.00;;;;;;5094244;28;20455;-76
2022/07/29 09:44:13;;;;;;;2.80;2.43;;;23.30;1.00;;;;;;5094038;28;20432;-76
2022/07/29 09:46:41;;;;;;;6.47;3.10;;;23.30;1.00;;;;;;5094263;28;21029;-77
2022/07/29 09:49:10;;;;;;;5.27;3.00;;;23.30;1.00;;;;;;5093853;28;20478;-76
2022/07/29 09:51:38;;;;;;;4.67;3.90;;;23.40;1.00;;;;;;5093512;28;20440;-76
2022/07/29 09:54:23;;;;;;;4.57;3.10;;;23.50;1.00;;;;;;5093772;28;20448;-76
2022/07/29 09:56:50;;;;;;;9.80;4.50;;;23.60;1.00;;;;;;5093441;28;20459;-76
2022/07/29 09:59:17;;;;;;;7.00;4.67;;;23.70;99.90;;;;;;5093569;28;20838;-77
2022/07/29 10:01:44;;;;;;;11.80;6.37;;;23.80;99.90;;;;;;5093968;28;20444;-77
2022/07/29 10:04:13;;;;;;;16.97;3.97;;;23.80;99.90;;;;;;5094002;28;20467;-77
2022/07/29 10:06:58;;;;;;;6.50;3.00;;;23.90;99.90;;;;;;5093848;28;20817;-77
2022/07/29 10:09:26;;;;;;;6.93;3.63;;;24.00;99.90;;;;;;5093644;28;20459;-76
2022/07/29 10:12:13;;;;;;;6.03;3.50;;;24.00;99.90;;;;;;5094294;28;20550;-77
2022/07/29 10:14:41;;;;;;;7.37;2.50;;;24.10;99.90;;;;;;5094488;28;20420;-77
2022/07/29 10:17:10;;;;;;;3.13;2.83;;;24.10;99.90;;;;;;5094757;28;20480;-77
2022/07/29 10:19:39;;;;;;;2.80;2.13;;;24.10;99.90;;;;;;5093314;28;20951;-77
2022/07/29 10:22:08;;;;;;;2.73;2.23;;;24.20;99.90;;;;;;5093667;28;20524;-77
2022/07/29 10:24:35;;;;;;;3.90;2.70;;;24.30;99.90;;;;;;5093812;28;20491;-77
2022/07/29 10:27:03;;;;;;;4.63;2.60;;;24.20;99.90;;;;;;5094327;28;20439;-76
2022/07/29 10:29:31;;;;;;;7.27;5.20;;;24.20;99.90;;;;;;5094734;28;20443;-77
2022/07/29 10:32:14;;;;;;;4.17;3.30;;;24.20;99.90;;;;;;5093688;28;20531;-77
2022/07/29 10:35:02;;;;;;;6.13;2.70;;;24.20;99.90;;;;;;5094043;28;20435;-78
2022/07/29 10:37:44;;;;;;;9.13;3.13;;;24.20;99.90;;;;;;5093341;28;20479;-77
2022/07/29 10:43:17;;;;;;;5.93;2.70;;;24.30;99.90;;;;;;5093539;28;20399;-77
2022/07/29 10:45:45;;;;;;;3.63;3.13;;;24.40;99.90;;;;;;5094452;28;20439;-78
2022/07/29 10:48:12;;;;;;;4.63;3.00;;;24.60;99.90;;;;;;5093366;28;20475;-77
2022/07/29 10:50:56;;;;;;;5.83;3.70;;;24.80;99.90;;;;;;5093111;28;20818;-76
2022/07/29 10:53:24;;;;;;;4.17;3.10;;;25.00;99.90;;;;;;5093142;28;20470;-77
2022/07/29 10:55:52;;;;;;;4.53;3.33;;;25.10;99.90;;;;;;5092988;28;20472;-76
2022/07/29 10:58:21;;;;;;;9.77;5.87;;;25.60;99.90;;;;;;5118448;22;20492;-79
2022/07/29 11:00:48;;;;;;;3.13;2.83;;;25.20;99.90;;;;;;5097617;28;20511;-79
2022/07/29 11:03:44;;;;;;;4.30;3.33;;;25.20;99.90;;;;;;5098747;28;20444;-79
2022/07/29 11:06:13;;;;;;;4.37;3.20;;;25.10;99.90;;;;;;5100230;28;20443;-79
2022/07/29 11:08:40;;;;;;;3.73;3.10;;;25.00;99.90;;;;;;5098729;28;20460;-78
2022/07/29 11:11:40;;;;;;;3.97;3.67;;;24.90;99.90;;;;;;5101238;28;20471;-79
2022/07/29 11:14:07;;;;;;;5.47;3.80;;;24.90;99.90;;;;;;5098421;28;20430;-79
2022/07/29 11:17:03;;;;;;;3.73;3.17;;;24.90;99.90;;;;;;5096997;28;20881;-79
2022/07/29 11:19:30;;;;;;;6.33;4.33;;;24.90;99.90;;;;;;5095396;28;20502;-78
2022/07/29 11:21:59;;;;;;;4.97;3.77;;;24.80;99.90;;;;;;5096769;28;20593;-79
2022/07/29 11:24:28;;;;;;;3.10;2.90;;;24.80;99.90;;;;;;5096973;28;20973;-78
2022/07/29 11:27:12;;;;;;;6.40;5.33;;;24.90;99.90;;;;;;5098492;28;20455;-78
2022/07/29 11:29:48;;;;;;;12.50;7.20;;;24.90;99.90;;;;;;5098053;28;20522;-78
2022/07/29 11:32:19;;;;;;;5.90;4.63;;;25.10;99.90;;;;;;5098292;28;20471;-79
2022/07/29 11:34:47;;;;;;;6.80;5.80;;;25.20;99.90;;;;;;5100030;28;20452;-79
2022/07/29 11:37:22;;;;;;;8.77;5.20;;;25.30;99.90;;;;;;5099936;28;20486;-79
2022/07/29 11:40:12;;;;;;;8.17;4.67;;;25.40;99.90;;;;;;5099785;28;20479;-79
2022/07/29 11:42:50;;;;;;;5.70;5.00;;;25.30;99.90;;;;;;5084143;28;20530;-79
2022/07/29 11:45:28;;;;;;;4.93;3.17;;;25.30;99.90;;;;;;5099507;28;20456;-80
2022/07/29 11:47:58;;;;;;;4.50;3.87;;;25.30;99.90;;;;;;5099863;28;20526;-79
2022/07/29 11:50:34;;;;;;;5.53;4.90;;;25.30;99.90;;;;;;5099606;28;20837;-78
2022/07/29 11:53:10;;;;;;;5.27;4.77;;;25.40;99.90;;;;;;5100005;28;20419;-78
2022/07/29 11:55:39;;;;;;;4.80;3.83;;;25.50;99.90;;;;;;5099708;28;20428;-79
2022/07/29 11:58:05;;;;;;;5.17;4.77;;;25.60;99.90;;;;;;5097733;28;20471;-78
2022/07/29 12:00:34;;;;;;;7.20;4.80;;;25.60;99.90;;;;;;5097665;28;20444;-78
2022/07/29 12:03:02;;;;;;;6.93;4.93;;;25.50;99.90;;;;;;5100407;28;20448;-77
2022/07/29 12:05:35;;;;;;;7.53;5.60;;;25.60;99.90;;;;;;5101048;28;20462;-77
2022/07/29 12:08:12;;;;;;;12.13;7.17;;;25.70;99.90;;;;;;5100478;28;20464;-78
2022/07/29 12:10:39;;;;;;;6.17;4.57;;;25.80;99.90;;;;;;5097271;28;20535;-78
2022/07/29 12:13:06;;;;;;;10.63;4.13;;;25.80;99.90;;;;;;5097403;28;20444;-78
2022/07/29 12:15:33;;;;;;;7.80;5.37;;;25.90;99.90;;;;;;5099100;28;20440;-78
2022/07/29 12:18:10;;;;;;;8.70;5.07;;;26.00;99.90;;;;;;5098640;28;20463;-78
2022/07/29 12:20:37;;;;;;;5.90;5.37;;;26.00;99.90;;;;;;5098556;28;20424;-78
2022/07/29 12:23:08;;;;;;;5.23;4.30;;;26.10;99.90;;;;;;5101650;28;20783;-77
2022/07/29 12:25:36;;;;;;;6.50;5.20;;;26.10;99.90;;;;;;5102697;28;20428;-77
2022/07/29 12:28:08;;;;;;;9.67;4.00;;;26.30;99.90;;;;;;5103577;28;20460;-78
2022/07/29 12:30:43;;;;;;;4.80;4.30;;;26.30;99.90;;;;;;5100147;28;20492;-80
2022/07/29 12:33:21;;;;;;;14.23;7.10;;;26.30;99.90;;;;;;5097823;28;20434;-78
2022/07/29 12:35:50;;;;;;;12.10;6.10;;;26.40;99.90;;;;;;5098006;28;20423;-79
2022/07/29 12:38:19;;;;;;;4.47;4.17;;;26.30;99.90;;;;;;5097081;28;20460;-79
2022/07/29 12:40:47;;;;;;;5.07;4.17;;;26.30;99.90;;;;;;5100465;28;20446;-78
2022/07/29 12:43:16;;;;;;;8.63;5.97;;;26.30;99.90;;;;;;5100948;28;20463;-78
2022/07/29 12:45:45;;;;;;;8.57;4.80;;;26.20;99.90;;;;;;5101238;28;20451;-77
2022/07/29 12:48:12;;;;;;;7.37;6.67;;;26.10;99.90;;;;;;5100620;28;20478;-78
2022/07/29 12:50:54;;;;;;;4.50;3.80;;;26.10;99.90;;;;;;5098200;28;20486;-80
2022/07/29 12:53:22;;;;;;;7.10;4.70;;;26.20;99.90;;;;;;5097649;28;20428;-79
2022/07/29 12:55:52;;;;;;;4.20;3.90;;;26.30;99.90;;;;;;5096633;28;20452;-80
2022/07/29 12:58:34;;;;;;;4.97;3.80;;;26.20;99.90;;;;;;5097528;28;20471;-78
2022/07/29 13:01:11;;;;;;;4.53;4.13;;;26.20;99.90;;;;;;5099512;28;20946;-78
2022/07/29 13:03:51;;;;;;;3.90;3.50;;;26.20;99.90;;;;;;5099527;28;20447;-78
2022/07/29 13:06:48;;;;;;;4.13;3.83;;;26.20;99.90;;;;;;5100875;28;20427;-78
2022/07/29 13:09:18;;;;;;;5.23;3.83;;;26.10;99.90;;;;;;5014841;28;20499;-78
2022/07/29 13:11:47;;;;;;;13.37;4.57;;;26.10;99.90;;;;;;5079881;28;20455;-78
2022/07/29 13:14:15;;;;;;;13.63;10.93;;;26.10;99.90;;;;;;5099190;28;20447;-77
2022/07/29 13:17:04;;;;;;;9.33;8.40;;;26.00;99.90;;;;;;5100753;28;20502;-76